Snyder, CO (80750)

3:59 PM MDT on September 01, 2015 (GMT -0600)
Ray Addition | | Change Station
CLOSE
Current Station
Personal Weather Station
Location: Brush, CO
Elevation: 4249 ft
Nearby Weather Stations

Elev 4249 ft 40.26 °N, 103.63 °W | Updated 39 seconds ago

Clear
Clear
88.8 °F
Feels Like 85 °F
N
1.0
Wind Variable Wind from West
Gusts 1.0 mph

Today
High -- | Low -- °F
--% Chance of Precip.
Yesterday
High -- | Low -- °F
Precip. -- in
6:21 AM 7:26 PM
Waning Gibbous, 86% visible
Pressure 30.00 in
Visibility 10.0 miles
Clouds Clear
Heat Index 85 °F
Dew Point 43 °F
Humidity 20%
Rainfall 0.00 in
Snow Depth Not available.
UV 5 out of 12
Pollen 9.90 out of 12
Air Quality Not available.
Flu Activity Not available.
METAR KFMM 012155Z AUTO 17004KT 10SM CLR 33/02 A3000 RMK AO2 T03300018
Pressure 30.00 in
Visibility 10.0 miles
Clouds Clear
Heat Index 85 °F
Dew Point 43 °F
Humidity 20%
Rainfall 0.00 in
Snow Depth Not available.
UV 5 out of 12
Pollen 9.90 out of 12
Air Quality Not available.
Flu Activity Not available.
METAR KFMM 012155Z AUTO 17004KT 10SM CLR 33/02 A3000 RMK AO2 T03300018

10-Day Weather Forecast

×

Almanac

Astronomy

Sep. 01, 2015 Rise Set
Actual Time
Civil Twilight
Nautical Twilight
Astronomical Twilight
Moon
Length of Visible Light
Length of Day
Tomorrow will be .
, % of the Moon is Illuminated

Today's Extremes

State Highs State Lows

Community

WunderPhotos

Upload Photos

1,851,628 photos uploaded!

WunderBlogs® & News

Nearby

Air Quality

  Air Quality AQ Index Pollutant
Not available.

Snow Depth

Station Depth Elevation

Earthquake Activity

City Distance Mag. Time & Date
Minimum magnitude displayed is 2.5.

Coastal Water Temperatures

Place Temperature

Stations

Nearby Weather Stations

Station Location Temp. Windchill Dew Point Humidity Wind Precip. Elev Updated Type